Weather at Surgut Airport

Public forecast

Using degrees Celsius for public forecast. Weather courtesy of forecast.io.

Current aviation weather report (METAR) for Surgut Airport

2024/02/25 09:00 (retrieved 40 minutes ago)

USRR 250900Z 13003MPS 9999 BKN048 M11/M15 Q1027 R07/35//55 NOSIG RMK QFE765

Aviation forecast (TAF) for Surgut Airport

2024/02/25 09:21 (retrieved 19 minutes ago)

TAF USRR 250751Z 2509/2609 14003G10MPS 9999 FEW011 BKN016 TEMPO 2509/2515 2100 -SHSN SCT002 BKN016CB